sensor_id;sensor_type;location;lat;lon;timestamp;P1;durP1;ratioP1;P2;durP2;ratioP2
19032;SDS011;9649;51.042;13.804;2023-01-29T16:32:15;14.57;;;6.77;;
19032;SDS011;9649;51.042;13.804;2023-01-29T16:37:20;15.77;;;7.50;;
19032;SDS011;9649;51.042;13.804;2023-01-29T16:42:25;13.90;;;6.90;;
19032;SDS011;9649;51.042;13.804;2023-01-29T16:47:33;11.93;;;6.60;;
19032;SDS011;9649;51.042;13.804;2023-01-29T16:52:37;13.17;;;7.33;;
19032;SDS011;9649;51.042;13.804;2023-01-29T16:57:40;13.30;;;6.77;;
19032;SDS011;9649;51.042;13.804;2023-01-29T17:02:46;14.63;;;7.80;;
19032;SDS011;9649;51.042;13.804;2023-01-29T17:07:54;15.30;;;7.83;;
19032;SDS011;9649;51.042;13.804;2023-01-29T17:12:59;13.40;;;7.50;;
19032;SDS011;9649;51.042;13.804;2023-01-29T17:18:07;13.13;;;7.40;;
19032;SDS011;9649;51.042;13.804;2023-01-29T17:23:18;15.40;;;6.60;;
19032;SDS011;9649;51.042;13.804;2023-01-29T17:28:21;13.03;;;6.77;;
19032;SDS011;9649;51.042;13.804;2023-01-29T17:33:25;13.00;;;6.80;;
19032;SDS011;9649;51.042;13.804;2023-01-29T17:38:28;10.90;;;6.20;;
19032;SDS011;9649;51.042;13.804;2023-01-29T17:43:31;11.83;;;6.63;;
19032;SDS011;9649;51.042;13.804;2023-01-29T17:48:35;12.27;;;6.73;;
19032;SDS011;9649;51.042;13.804;2023-01-29T17:53:38;10.63;;;6.07;;
19032;SDS011;9649;51.042;13.804;2023-01-29T17:58:46;13.00;;;7.10;;
19032;SDS011;9649;51.042;13.804;2023-01-29T18:03:50;11.47;;;6.63;;
19032;SDS011;9649;51.042;13.804;2023-01-29T18:08:53;12.87;;;6.67;;
19032;SDS011;9649;51.042;13.804;2023-01-29T18:13:56;12.47;;;6.87;;
19032;SDS011;9649;51.042;13.804;2023-01-29T18:19:07;13.03;;;6.87;;
19032;SDS011;9649;51.042;13.804;2023-01-29T18:24:14;11.83;;;6.93;;
19032;SDS011;9649;51.042;13.804;2023-01-29T18:29:17;12.07;;;6.67;;
19032;SDS011;9649;51.042;13.804;2023-01-29T18:34:21;15.47;;;6.63;;
19032;SDS011;9649;51.042;13.804;2023-01-29T18:39:24;11.17;;;5.93;;
19032;SDS011;9649;51.042;13.804;2023-01-29T18:44:27;12.50;;;6.73;;
19032;SDS011;9649;51.042;13.804;2023-01-29T18:49:31;9.77;;;6.20;;
19032;SDS011;9649;51.042;13.804;2023-01-29T18:54:34;14.57;;;6.33;;
19032;SDS011;9649;51.042;13.804;2023-01-29T18:59:37;9.17;;;5.87;;
19032;SDS011;9649;51.042;13.804;2023-01-29T19:04:41;10.97;;;6.47;;
19032;SDS011;9649;51.042;13.804;2023-01-29T19:09:44;12.03;;;6.97;;
19032;SDS011;9649;51.042;13.804;2023-01-29T19:14:47;11.13;;;6.40;;
19032;SDS011;9649;51.042;13.804;2023-01-29T19:19:51;12.67;;;6.77;;
19032;SDS011;9649;51.042;13.804;2023-01-29T19:24:56;11.57;;;6.30;;
19032;SDS011;9649;51.042;13.804;2023-01-29T19:29:59;10.47;;;6.73;;
19032;SDS011;9649;51.042;13.804;2023-01-29T19:35:06;10.23;;;6.57;;
19032;SDS011;9649;51.042;13.804;2023-01-29T19:40:09;11.63;;;6.70;;
19032;SDS011;9649;51.042;13.804;2023-01-29T19:45:12;11.83;;;6.77;;
19032;SDS011;9649;51.042;13.804;2023-01-29T21:27:24;12.77;;;7.07;;
19032;SDS011;9649;51.042;13.804;2023-01-29T21:32:38;15.80;;;8.07;;
19032;SDS011;9649;51.042;13.804;2023-01-29T21:37:46;13.77;;;8.17;;
19032;SDS011;9649;51.042;13.804;2023-01-29T21:42:51;17.47;;;8.70;;
19032;SDS011;9649;51.042;13.804;2023-01-29T21:48:15;17.40;;;10.00;;
19032;SDS011;9649;51.042;13.804;2023-01-29T21:53:17;13.20;;;7.73;;
19032;SDS011;9649;51.042;13.804;2023-01-29T21:58:22;14.50;;;7.93;;
19032;SDS011;9649;51.042;13.804;2023-01-29T22:03:25;13.70;;;7.90;;
19032;SDS011;9649;51.042;13.804;2023-01-29T22:08:30;14.20;;;8.17;;
19032;SDS011;9649;51.042;13.804;2023-01-29T22:13:34;14.47;;;7.73;;
19032;SDS011;9649;51.042;13.804;2023-01-29T22:18:37;13.90;;;8.33;;
19032;SDS011;9649;51.042;13.804;2023-01-29T22:23:39;14.13;;;8.30;;
19032;SDS011;9649;51.042;13.804;2023-01-29T22:28:44;16.07;;;8.57;;
19032;SDS011;9649;51.042;13.804;2023-01-29T22:33:48;17.30;;;8.70;;
19032;SDS011;9649;51.042;13.804;2023-01-29T22:38:53;15.00;;;8.43;;
19032;SDS011;9649;51.042;13.804;2023-01-29T22:43:57;15.17;;;8.10;;
19032;SDS011;9649;51.042;13.804;2023-01-29T22:49:00;14.30;;;8.07;;
19032;SDS011;9649;51.042;13.804;2023-01-29T22:54:05;15.00;;;8.10;;
19032;SDS011;9649;51.042;13.804;2023-01-29T22:59:09;14.93;;;8.30;;
19032;SDS011;9649;51.042;13.804;2023-01-29T23:04:12;14.10;;;7.73;;
19032;SDS011;9649;51.042;13.804;2023-01-29T23:09:15;16.23;;;8.10;;
19032;SDS011;9649;51.042;13.804;2023-01-29T23:14:19;14.13;;;8.77;;
19032;SDS011;9649;51.042;13.804;2023-01-29T23:19:21;14.93;;;8.23;;
19032;SDS011;9649;51.042;13.804;2023-01-29T23:24:24;14.67;;;8.33;;
19032;SDS011;9649;51.042;13.804;2023-01-29T23:29:34;13.73;;;7.63;;
19032;SDS011;9649;51.042;13.804;2023-01-29T23:34:42;12.87;;;7.37;;
19032;SDS011;9649;51.042;13.804;2023-01-29T23:39:44;12.00;;;7.03;;
19032;SDS011;9649;51.042;13.804;2023-01-29T23:44:48;13.87;;;7.40;;
19032;SDS011;9649;51.042;13.804;2023-01-29T23:49:51;12.97;;;7.83;;
19032;SDS011;9649;51.042;13.804;2023-01-29T23:54:54;12.40;;;7.40;;
19032;SDS011;9649;51.042;13.804;2023-01-29T23:59:58;12.03;;;7.13;;
